地図

経路データ

SID SEASON NUMBER BASIN SUBBASIN NAME ISO_TIME NATURE LAT LON WMO_WIND WMO_PRES WMO_AGENCY TRACK_TYPE DIST2LAND LANDFALL IFLAG USA_AGENCY USA_ATCF_ID USA_LAT USA_LON USA_RECORD USA_STATUS USA_WIND USA_PRES USA_SSHS USA_R34_NE USA_R34_SE USA_R34_SW USA_R34_NW USA_R50_NE USA_R50_SE USA_R50_SW USA_R50_NW USA_R64_NE USA_R64_SE USA_R64_SW USA_R64_NW USA_POCI USA_ROCI USA_RMW USA_EYE TOKYO_LAT TOKYO_LON TOKYO_GRADE TOKYO_WIND TOKYO_PRES TOKYO_R50_DIR TOKYO_R50_LONG TOKYO_R50_SHORT TOKYO_R30_DIR TOKYO_R30_LONG TOKYO_R30_SHORT TOKYO_LAND CMA_LAT CMA_LON CMA_CAT CMA_WIND CMA_PRES HKO_LAT HKO_LON HKO_CAT HKO_WIND HKO_PRES NEWDELHI_LAT NEWDELHI_LON NEWDELHI_GRADE NEWDELHI_WIND NEWDELHI_PRES NEWDELHI_CI NEWDELHI_DP NEWDELHI_POCI REUNION_LAT REUNION_LON REUNION_TYPE REUNION_WIND REUNION_PRES REUNION_TNUM REUNION_CI REUNION_RMW REUNION_R34_NE REUNION_R34_SE REUNION_R34_SW REUNION_R34_NW REUNION_R50_NE REUNION_R50_SE REUNION_R50_SW REUNION_R50_NW REUNION_R64_NE REUNION_R64_SE REUNION_R64_SW REUNION_R64_NW BOM_LAT BOM_LON BOM_TYPE BOM_WIND BOM_PRES BOM_TNUM BOM_CI BOM_RMW BOM_R34_NE BOM_R34_SE BOM_R34_SW BOM_R34_NW BOM_R50_NE BOM_R50_SE BOM_R50_SW BOM_R50_NW BOM_R64_NE BOM_R64_SE BOM_R64_SW BOM_R64_NW BOM_ROCI BOM_POCI BOM_EYE BOM_POS_METHOD BOM_PRES_METHOD NADI_LAT NADI_LON NADI_CAT NADI_WIND NADI_PRES WELLINGTON_LAT WELLINGTON_LON WELLINGTON_WIND WELLINGTON_PRES DS824_LAT DS824_LON DS824_STAGE DS824_WIND DS824_PRES TD9636_LAT TD9636_LON TD9636_STAGE TD9636_WIND TD9636_PRES TD9635_LAT TD9635_LON TD9635_WIND TD9635_PRES TD9635_ROCI NEUMANN_LAT NEUMANN_LON NEUMANN_CLASS NEUMANN_WIND NEUMANN_PRES MLC_LAT MLC_LON MLC_CLASS MLC_WIND MLC_PRES USA_GUST BOM_GUST BOM_GUST_PER REUNION_GUST REUNION_GUST_PER USA_SEAHGT USA_SEARAD_NE USA_SEARAD_SE USA_SEARAD_SW USA_SEARAD_NW STORM_SPEED STORM_DIR
1960051S10073 1960 8 SI MM NOT_NAMED 1960-02-20 06:00:00 TS -10.3000 72.6000 main 1937 1910 O________OO___ jtwc_sh SH131960 -10.3000 72.6000 -1 -10.3000 72.6000 TC 25 -10.3000 72.6000 7 6 261
1960051S10073 1960 8 SI MM NOT_NAMED 1960-02-20 09:00:00 TS -10.3444 72.3045 main 1910 1877 P________PP___ SH131960 -10.3525 72.3075 -1 -10.3525 72.3075 TC 25 -10.3282 72.2983 7 6 262
1960051S10073 1960 8 SI MM NOT_NAMED 1960-02-20 12:00:00 TS -10.3883 71.9958 main 1877 1851 O________OP___ jtwc_sh SH131960 -10.4000 72.0000 -1 -10.4000 72.0000 TC 25 -10.3650 71.9873 7 6 262
1960051S10073 1960 8 SI MM NOT_NAMED 1960-02-20 15:00:00 TS -10.4347 71.6625 main 1851 1810 P________PP___ SH131960 -10.4425 71.6650 -1 -10.4425 71.6650 TC 25 -10.4193 71.6576 7 7 261
1960051S10073 1960 8 SI MM NOT_NAMED 1960-02-20 18:00:00 TS -10.5000 71.3000 main 1810 1768 O________OO___ jtwc_sh SH131960 -10.5000 71.3000 -1 -10.5000 71.3000 TC 25 -10.5000 71.3000 7 8 258
1960051S10073 1960 8 SI MM NOT_NAMED 1960-02-20 21:00:00 TS -10.5939 70.9037 main 1768 1727 P________PP___ SH131960 -10.5850 70.9000 -1 -10.5850 70.9000 TC 25 -10.6117 70.9111 7 8 255
1960051S10073 1960 8 SI MM NOT_NAMED 1960-02-21 00:00:00 TS -10.7142 70.5043 main 1727 1679 O________OP___ jtwc_sh SH131960 -10.7000 70.5000 -1 -10.7000 70.5000 TC 25 -10.7427 70.5128 7 8 251
1960051S10073 1960 8 SI MM NOT_NAMED 1960-02-21 03:00:00 TS -10.8641 70.1244 main 1679 1647 P________PP___ SH131960 -10.8575 70.1201 -1 -10.8575 70.1201 TC 25 -10.8774 70.1330 7 8 248
1960051S10073 1960 8 SI MM NOT_NAMED 1960-02-21 06:00:00 TS -11.0000 69.8000 main 1647 1623 O________OO___ jtwc_sh SH131960 -11.0000 69.8000 -1 -11.0000 69.8000 TC 25 -11.0000 69.8000 1 6 250
1960051S10073 1960 8 SI MM NOT_NAMED 1960-02-21 09:00:00 TS -11.0626 69.5667 main 1623 1606 P________PP___ SH131960 -11.0574 69.5774 -1 -11.0574 69.5774 TC 25 -11.0729 69.5454 1 4 255
1960051S10073 1960 8 SI MM NOT_NAMED 1960-02-21 12:00:00 TS -11.1116 69.3799 main 1606 1582 O________OP___ jtwc_sh SH131960 -11.1000 69.4000 -1 -11.1000 69.4000 TC 25 -11.1347 69.3397 1 4 251
1960051S10073 1960 8 SI MM NOT_NAMED 1960-02-21 15:00:00 TS -11.1914 69.1880 main 1582 1558 P________PP___ SH131960 -11.1850 69.2000 -1 -11.1850 69.2000 TC 25 -11.2042 69.1642 1 4 243
1960051S10073 1960 8 SI MM NOT_NAMED 1960-02-21 18:00:00 TS -11.3000 69.0000 main 1558 1535 O________OO___ jtwc_sh SH131960 -11.3000 69.0000 -1 -11.3000 69.0000 TC 25 -11.3000 69.0000 1 5 237
1960051S10073 1960 8 SI MM NOT_NAMED 1960-02-21 21:00:00 TS -11.4415 68.7956 main 1535 1504 P________PP___ SH131960 -11.4350 68.7925 -1 -11.4350 68.7925 TC 25 -11.4544 68.8017 1 5 231
1960051S10073 1960 8 SI MM NOT_NAMED 1960-02-22 00:00:00 TS -11.6117 68.6042 main 1504 1472 O________OP___ jtwc_sh SH131960 -11.6000 68.6000 -1 -11.6000 68.6000 TC 25 -11.6350 68.6127 1 5 223
1960051S10073 1960 8 SI MM NOT_NAMED 1960-02-22 03:00:00 TS -11.8127 68.4374 main 1472 1450 P________PP___ SH131960 -11.8075 68.4350 -1 -11.8075 68.4350 TC 25 -11.8231 68.4423 1 5 217
1960051S10073 1960 8 SI MM NOT_NAMED 1960-02-22 06:00:00 TS -12.0000 68.3000 main 1450 1434 O________OO___ jtwc_sh SH131960 -12.0000 68.3000 -1 -12.0000 68.3000 TC 25 -12.0000 68.3000 1 4 218
1960051S10073 1960 8 SI MM NOT_NAMED 1960-02-22 09:00:00 TS -12.1154 68.1941 main 1434 1419 P________PP___ SH131960 -12.1075 68.1850 -1 -12.1075 68.1850 TC 25 -12.1311 68.2123 1 3 220
1960051S10073 1960 8 SI MM NOT_NAMED 1960-02-22 12:00:00 TS -12.2166 68.1166 main 1419 1411 O________OP___ jtwc_sh SH131960 -12.2000 68.1000 -1 -12.2000 68.1000 TC 25 -12.2498 68.1497 1 3 208
1960051S10073 1960 8 SI MM NOT_NAMED 1960-02-22 15:00:00 TS -12.3512 68.0674 main 1404 1389 P________PP___ SH131960 -12.3425 68.0575 -1 -12.3425 68.0575 TC 25 -12.3686 68.0873 1 3 201
1960051S10073 1960 8 SI MM NOT_NAMED 1960-02-22 18:00:00 TS -12.5000 68.0000 main 1389 1373 O________OO___ jtwc_sh SH131960 -12.5000 68.0000 -1 -12.5000 68.0000 TC 25 -12.5000 68.0000 1 4 213
1960051S10073 1960 8 SI MM NOT_NAMED 1960-02-22 21:00:00 TS -12.6431 67.8702 main 1373 1342 P________PP___ SH131960 -12.6425 67.8725 -1 -12.6425 67.8725 TC 25 -12.6444 67.8658 1 4 224
1960051S10073 1960 8 SI MM NOT_NAMED 1960-02-23 00:00:00 TS -12.8017 67.7008 main 1342 1311 O________OP___ jtwc_sh SH131960 -12.8000 67.7000 -1 -12.8000 67.7000 TC 25 -12.8050 67.7023 1 5 225
1960051S10073 1960 8 SI MM NOT_NAMED 1960-02-23 03:00:00 TS -12.9860 67.5142 main 1311 1272 P________PP___ SH131960 -12.9850 67.5150 -1 -12.9850 67.5150 TC 30 -12.9881 67.5126 1 6 226
1960051S10073 1960 8 SI MM NOT_NAMED 1960-02-23 06:00:00 TS -13.2385 67.2308 reunion main 1272 1234 O____O___OO___ jtwc_sh SH131960 -13.2000 67.3000 -1 -13.7000 66.4000 99 9.90000 -13.2000 67.3000 TC 35 -13.2000 67.3000 2 7 228
1960051S10073 1960 8 SI MM NOT_NAMED 1960-02-23 09:00:00 TS -13.4805 66.9517 main 1234 1195 P____P___PP___ SH131960 -13.4350 67.0575 -1 -13.7067 66.2725 99 -13.4350 67.0575 TC 35 -13.4584 67.0798 2 7 229
1960051S10073 1960 8 SI MM NOT_NAMED 1960-02-23 12:00:00 TS -13.7143 66.6781 main 1195 1156 O____P___OP___ jtwc_sh SH131960 -13.7000 66.8000 -1 -13.7151 66.1404 99 -13.7000 66.8000 TC 35 -13.7424 66.8376 2 7 228
1960051S10073 1960 8 SI MM NOT_NAMED 1960-02-23 15:00:00 TS -13.9431 66.4190 main 1156 1118 P____P___PP___ SH131960 -14.0075 66.5500 -1 -13.7271 65.9993 99 -14.0075 66.5500 TC 35 -14.0302 66.5766 2 7 227
1960051S10073 1960 8 SI MM NOT_NAMED 1960-02-23 18:00:00 TS -14.1611 66.1862 main 1118 1094 O____P___OO___ jtwc_sh SH131960 -14.3000 66.3000 -1 -13.7442 65.8447 99 -14.3000 66.3000 TC 35 -14.3000 66.3000 2 6 229
1960051S10073 1960 8 SI MM NOT_NAMED 1960-02-23 21:00:00 TS -14.3339 65.9591 main 1094 1055 P____P___PP___ SH131960 -14.5149 66.0649 -1 -13.7684 65.6720 99 -14.5149 66.0649 TC 35 -14.5376 66.0345 2 6 235
1960051S10073 1960 8 SI MM NOT_NAMED 1960-02-24 00:00:00 TS -14.4883 65.7073 main 1055 1022 O____P___OP___ jtwc_sh SH131960 -14.7000 65.8000 -1 -13.8013 65.4767 99 -14.7000 65.8000 TC 35 -14.7521 65.7523 2 6 239
1960051S10073 1960 8 SI MM NOT_NAMED 1960-02-24 03:00:00 TS -14.6500 65.4108 main 1015 983 P____P___PP___ SH131960 -14.9075 65.4725 -1 -13.8446 65.2542 99 -14.9075 65.4725 TC 35 -14.9406 65.4439 2 7 243
1960051S10073 1960 8 SI MM NOT_NAMED 1960-02-24 06:00:00 TS -14.8000 65.0750 reunion main 983 943 O____O___OO___ jtwc_sh SH131960 -15.1000 65.1000 -1 -13.9000 65.0000 99 9.90000 -15.1000 65.1000 TC 35 -15.1000 65.1000 2 7 247
1960051S10073 1960 8 SI MM NOT_NAMED 1960-02-24 09:00:00 TS -14.9387 64.7120 main 943 902 P____P___PP___ SH131960 -15.2724 64.7150 -1 -13.9689 64.7112 99 -15.2724 64.7150 TC 35 -15.2410 64.7068 2 8 251
1960051S10073 1960 8 SI MM NOT_NAMED 1960-02-24 12:00:00 TS -15.0509 64.3181 main 895 862 O____P___OP___ jtwc_sh SH131960 -15.4000 64.3000 -1 -14.0510 64.3924 99 -15.4000 64.3000 TC 35 -15.3526 64.2799 2 8 256
1960051S10073 1960 8 SI MM NOT_NAMED 1960-02-24 15:00:00 TS -15.1322 63.8969 main 862 823 P____P___PP___ SH131960 -15.4725 63.8499 -1 -14.1461 64.0498 99 -15.4725 63.8499 TC 35 -15.4379 63.8381 2 8 260
1960051S10073 1960 8 SI MM NOT_NAMED 1960-02-24 18:00:00 TS -15.1884 63.4724 main 823 792 O____P___OO___ jtwc_sh SH131960 -15.5000 63.4000 -1 -14.2535 63.6897 99 -15.5000 63.4000 TC 35 -15.5000 63.4000 2 8 263
1960051S10073 1960 8 SI MM NOT_NAMED 1960-02-24 21:00:00 TS -15.2298 63.0658 main 792 754 P____P___PP___ SH131960 -15.4999 62.9924 -1 -14.3730 63.3183 99 -15.4999 62.9924 TC 35 -15.5466 62.9601 2 8 264
1960051S10073 1960 8 SI MM NOT_NAMED 1960-02-25 00:00:00 TS -15.2692 62.6686 main 754 725 O____P___OP___ jtwc_sh SH131960 -15.5000 62.6000 -1 -14.5041 62.9421 99 -15.5000 62.6000 TC 35 -15.5727 62.5323 2 8 262
1960051S10073 1960 8 SI MM NOT_NAMED 1960-02-25 03:00:00 TS -15.3335 62.2614 main 725 688 P____P___PP___ SH131960 -15.5501 62.1701 -1 -14.6465 62.5672 99 -15.5501 62.1701 TC 35 -15.5873 62.1383 2 8 260
1960051S10073 1960 8 SI MM NOT_NAMED 1960-02-25 06:00:00 TS -15.4000 61.9000 reunion main 688 668 O____O___OO___ jtwc_sh SH131960 -15.6000 61.8000 -1 -14.8000 62.2000 99 9.90000 -15.6000 61.8000 TC 35 -15.6000 61.8000 2 6 260
1960051S10073 1960 8 SI MM NOT_NAMED 1960-02-25 09:00:00 TS -15.4455 61.6335 main 668 646 P____P___PP___ SH131960 -15.5999 61.5699 -1 -14.9577 61.8393 99 -15.5999 61.5699 TC 35 -15.6245 61.5546 2 5 259
1960051S10073 1960 8 SI MM NOT_NAMED 1960-02-25 12:00:00 TS -15.4943 61.4105 main 646 625 O____P___OP___ jtwc_sh SH131960 -15.6000 61.4000 -1 -15.1280 61.4795 99 -15.6000 61.4000 TC 35 -15.6494 61.3624 2 5 254
1960051S10073 1960 8 SI MM NOT_NAMED 1960-02-25 15:00:00 TS -15.5708 61.1823 main 625 612 P____P___PP___ SH131960 -15.6500 61.2075 -1 -15.3088 61.1252 99 -15.6500 61.2075 TC 35 -15.6746 61.1890 2 5 251
1960051S10073 1960 8 SI MM NOT_NAMED 1960-02-25 18:00:00 TS -15.6495 60.9453 main 606 585 O____P___OO___ jtwc_sh SH131960 -15.7000 61.0000 -1 -15.4980 60.7810 99 -15.7000 61.0000 TC 35 -15.7000 61.0000 2 5 255
1960051S10073 1960 8 SI MM NOT_NAMED 1960-02-25 21:00:00 TS -15.7026 60.6820 main 585 559 P____P___PP___ SH131960 -15.7000 60.7649 -1 -15.6937 60.4517 99 -15.7000 60.7649 TC 35 -15.7169 60.7465 2 5 258
1960051S10073 1960 8 SI MM NOT_NAMED 1960-02-26 00:00:00 TS -15.7572 60.4036 main 559 543 O____P___OP___ jtwc_sh SH131960 -15.7000 60.5000 -1 -15.8939 60.1419 99 -15.7000 60.5000 TC 35 -15.7350 60.4724 2 6 256
1960051S10073 1960 8 SI MM NOT_NAMED 1960-02-26 03:00:00 TS -15.8356 60.1109 main 543 519 P____P___PP___ SH131960 -15.7425 60.2000 -1 -16.0966 59.8564 99 -15.7425 60.2000 TC 50 -15.7606 60.1871 2 6 253
1960051S10073 1960 8 SI MM NOT_NAMED 1960-02-26 06:00:00 TS -15.9250 59.8250 reunion main 519 500 O____O___OO___ jtwc_sh SH131960 -15.8000 59.9000 -1 -16.3000 59.6000 99 9.90000 -15.8000 59.9000 TC 65 -15.8000 59.9000 4 5 252
1960051S10073 1960 8 SI MM NOT_NAMED 1960-02-26 09:00:00 TS -16.0066 59.5734 main 500 478 P____P___PP___ SH131960 -15.8424 59.6499 -1 -16.4890 59.3767 99 -15.8424 59.6499 TC 65 -15.8525 59.6169 4 5 250
1960051S10073 1960 8 SI MM NOT_NAMED 1960-02-26 12:00:00 TS -16.0999 59.3293 main 478 460 O____P___OP___ jtwc_sh SH131960 -15.9000 59.4000 -1 -16.6795 59.1821 99 -15.9000 59.4000 TC 65 -15.9200 59.3350 4 5 247
1960051S10073 1960 8 SI MM NOT_NAMED 1960-02-26 15:00:00 TS -16.2150 59.0683 main 460 440 P____P___PP___ SH131960 -15.9925 59.1000 -1 -16.8726 59.0124 99 -15.9925 59.1000 TC 65 -16.0025 59.0606 4 6 244
1960051S10073 1960 8 SI MM NOT_NAMED 1960-02-26 18:00:00 TS -16.3422 58.8159 main 440 424 O____P___OO___ jtwc_sh SH131960 -16.1000 58.8000 -1 -17.0687 58.8637 99 -16.1000 58.8000 TC 65 -16.1000 58.8000 4 5 243
1960051S10073 1960 8 SI MM NOT_NAMED 1960-02-26 21:00:00 TS -16.4519 58.5875 main 413 398 P____P___PP___ SH131960 -16.1925 58.5350 -1 -17.2688 58.7321 99 -16.1925 58.5350 TC 65 -16.1537 58.5481 4 5 241
1960051S10073 1960 8 SI MM NOT_NAMED 1960-02-27 00:00:00 TS -16.5759 58.3814 main 398 384 O____P___OP___ jtwc_sh SH131960 -16.3000 58.3000 -1 -17.4736 58.6135 99 -16.3000 58.3000 TC 65 -16.2300 58.3120 4 5 235
1960051S10073 1960 8 SI MM NOT_NAMED 1960-02-27 03:00:00 TS -16.7112 58.1959 main 384 359 P____P___PP___ SH131960 -16.3975 58.0923 -1 -17.6838 58.5042 99 -16.3975 58.0923 TC 65 -16.3662 58.0949 4 5 224
1960051S10073 1960 8 SI MM NOT_NAMED 1960-02-27 06:00:00 TS -16.9250 58.0250 reunion main 359 324 O____O___OO___ jtwc_sh SH131960 -16.6000 57.9000 -1 -17.9000 58.4000 99 9.90000 -16.6000 57.9000 TC 65 -16.6000 57.9000 4 7 212
1960051S10073 1960 8 SI MM NOT_NAMED 1960-02-27 09:00:00 TS -17.2641 57.8319 main 313 268 P____P___PP___ SH131960 -16.9975 57.6851 -1 -18.0625 58.2567 99 -16.9975 57.6851 TC 65 -16.9987 57.7007 4 8 205
1960051S10073 1960 8 SI MM NOT_NAMED 1960-02-27 12:00:00 TS -17.6785 57.6612 main 268 223 O____P___OP___ jtwc_sh SH131960 -17.5000 57.5000 -1 -18.2239 58.1190 99 -17.5000 57.5000 TC 65 -17.4900 57.5259 4 9 199
1960051S10073 1960 8 SI MM NOT_NAMED 1960-02-27 15:00:00 TS -18.1129 57.5296 main 223 178 P____P___PP___ SH131960 -18.0225 57.3700 -1 -18.3953 57.9903 99 -18.0225 57.3700 TC 65 -18.0113 57.3882 4 9 194
1960051S10073 1960 8 SI MM NOT_NAMED 1960-02-27 18:00:00 TS -18.5221 57.4435 main 179 145 O____P___OO___ jtwc_sh SH131960 -18.5000 57.3000 -1 -18.5882 57.8740 99 -18.5000 57.3000 TC 65 -18.5000 57.3000 4 7 190
1960051S10073 1960 8 SI MM NOT_NAMED 1960-02-27 21:00:00 TS -18.8276 57.3976 main 145 112 P____P___PP___ SH131960 -18.8225 57.2774 -1 -18.8138 57.7734 99 -18.8225 57.2774 TC 65 -18.8518 57.2621 4 6 185
1960051S10073 1960 8 SI MM NOT_NAMED 1960-02-28 00:00:00 TS -19.1121 57.3916 main 112 78 O____P___OP___ jtwc_sh SH131960 -19.1000 57.3000 -1 -19.0833 57.6919 99 -19.1000 57.3000 TC 65 -19.1649 57.2747 4 6 0
1960051S10073 1960 8 SI MM NOT_NAMED 1960-02-28 03:00:00 TS -19.4372 57.4070 main 78 35 P____P___PP___ SH131960 -19.4350 57.3350 -1 -19.4083 57.6330 99 -19.4350 57.3350 TC 65 -19.4705 57.3249 4 7 176
1960051S10073 1960 8 SI MM NOT_NAMED 1960-02-28 06:00:00 TS -19.8000 57.4500 reunion main 33 0 O____O___OO___ jtwc_sh SH131960 -19.8000 57.4000 -1 -19.8000 57.6000 99 9.90000 -19.8000 57.4000 TC 65 -19.8000 57.4000 4 8 173
1960051S10073 1960 8 SI MM NOT_NAMED 1960-02-28 09:00:00 TS -20.2272 57.5080 main 0 0 P____P___PP___ SH131960 -20.1850 57.4925 -1 -20.3343 57.5808 99 -20.1850 57.4925 TC 65 -20.2043 57.4663 4 9 172
1960051S10073 1960 8 SI MM NOT_NAMED 1960-02-28 12:00:00 TS -20.6942 57.5854 main 22 22 O____P___OP___ jtwc_sh SH131960 -20.6000 57.6000 -1 -20.9419 57.5864 99 -20.6000 57.6000 TC 65 -20.6350 57.5551 4 10 171
1960051S10073 1960 8 SI MM NOT_NAMED 1960-02-28 15:00:00 TS -21.2010 57.6669 main 78 78 P____P___PP___ SH131960 -21.0650 57.6926 -1 -21.6010 57.6162 99 -21.0650 57.6926 TC 65 -21.0731 57.6664 4 10 170
1960051S10073 1960 8 SI MM NOT_NAMED 1960-02-28 18:00:00 TS -21.6974 57.7673 main 134 134 O____P___OO___ jtwc_sh SH131960 -21.5000 57.8000 -1 -22.2896 57.6694 99 -21.5000 57.8000 TC 65 -21.5000 57.8000 4 9 167
1960051S10073 1960 8 SI MM NOT_NAMED 1960-02-28 21:00:00 TS -22.1005 57.8856 main 180 180 P____P___PP___ SH131960 -21.8000 57.9352 -1 -22.9858 57.7451 99 -21.8000 57.9352 TC 65 -21.8161 57.9268 4 8 163
1960051S10073 1960 8 SI MM NOT_NAMED 1960-02-29 00:00:00 TS -22.4993 58.0302 main 225 225 O____P___OP___ jtwc_sh SH131960 -22.1000 58.1000 -1 -23.6675 57.8428 99 -22.1000 58.1000 TC 65 -22.1298 58.0780 4 9 161
1960051S10073 1960 8 SI MM NOT_NAMED 1960-02-29 03:00:00 TS -22.9416 58.1956 main 273 273 P____P___PP___ SH131960 -22.4750 58.2780 -1 -24.3129 57.9614 99 -22.4750 58.2780 TC 65 -22.5035 58.2650 4 10 161
1960051S10073 1960 8 SI MM NOT_NAMED 1960-02-29 06:00:00 TS -23.4750 58.4000 reunion main 343 343 O____O___OO___ jtwc_sh SH131960 -23.0000 58.5000 -1 -24.9000 58.1000 99 9.90000 -23.0000 58.5000 TC 65 -23.0000 58.5000 4 13 161
1960051S10073 1960 8 SI MM NOT_NAMED 1960-02-29 09:00:00 TS -24.1481 58.6462 main 412 412 P____P___PP___ SH131960 -23.7400 58.7702 -1 -25.4124 58.2574 99 -23.7400 58.7702 TC 65 -23.6999 58.7870 4 15 161
1960051S10073 1960 8 SI MM NOT_NAMED 1960-02-29 12:00:00 TS -24.8944 58.9390 main 507 507 O____P___OP___ jtwc_sh SH131960 -24.6000 59.1000 -1 -25.8549 58.4315 99 -24.6000 59.1000 TC 65 -24.5228 59.1246 4 16 159
1960051S10073 1960 8 SI MM NOT_NAMED 1960-02-29 15:00:00 TS -25.6367 59.2726 main 593 593 P____P___PP___ SH131960 -25.4500 59.4851 -1 -26.2375 58.6200 99 -25.4500 59.4851 TC 65 -25.4093 59.5001 4 16 157
1960051S10073 1960 8 SI MM NOT_NAMED 1960-02-29 18:00:00 TS -26.3675 59.6302 main 687 687 O____P___OO___ jtwc_sh SH131960 -26.3000 59.9000 -1 -26.5701 58.8207 99 -26.3000 59.9000 TC 65 -26.3000 59.9000 4 16 156
1960051S10073 1960 8 SI MM NOT_NAMED 1960-02-29 21:00:00 TS -27.0470 59.9739 main 763 763 P____P___PP___ SH131960 -27.1073 60.2933 -1 -26.8628 59.0313 99 -27.1073 60.2933 TC 65 -27.1105 60.2776 4 15 153
1960051S10073 1960 8 SI MM NOT_NAMED 1960-03-01 00:00:00 TS -27.7487 60.4043 main 849 849 O____P___OP___ jtwc_sh SH131960 -27.9000 60.7000 -1 -27.1253 59.2496 99 -27.9000 60.7000 TC 65 -27.9137 60.6790 4 17 151
1960051S10073 1960 8 SI MM NOT_NAMED 1960-03-01 03:00:00 TS -28.5124 60.8842 main 950 950 P____P___PP___ SH131960 -28.6997 61.1211 -1 -27.3678 59.4732 99 -28.6997 61.1211 TC 65 -28.7102 61.1159 4 19 150
1960051S10073 1960 8 SI MM NOT_NAMED 1960-03-01 06:00:00 TS -29.3538 61.4538 reunion main 1065 1065 O____O___OO___ jtwc_sh SH131960 -29.5000 61.6000 -1 -27.6000 59.7000 99 9.90000 -29.5000 61.6000 TC 65 -29.5000 61.6000 4 21 148
1960051S10073 1960 8 SI MM NOT_NAMED 1960-03-01 09:00:00 TS -30.3059 62.1710 main 1183 1183 P________PP___ SH131960 -30.3075 62.1778 -1 99 -30.3075 62.1778 TC 65 -30.3028 62.1574 4 21 147
1960051S10073 1960 8 SI MM NOT_NAMED 1960-03-01 12:00:00 TS -31.0985 62.7873 main 1288 1288 O________OP___ jtwc_sh SH131960 -31.1000 62.8000 -1 99 -31.1000 62.8000 TC 65 -31.0955 62.7619 4 19 146
1960051S10073 1960 8 SI MM NOT_NAMED 1960-03-01 15:00:00 TS -31.8650 63.4008 main 1393 1393 P________PP___ SH131960 -31.8648 63.4083 -1 99 -31.8648 63.4083 TC 65 -31.8653 63.3858 4 18 146
1960051S10073 1960 8 SI MM NOT_NAMED 1960-03-01 18:00:00 TS -32.6000 64.0000 main 1488 1488 O________OO___ jtwc_sh SH131960 -32.6000 64.0000 -1 99 -32.6000 64.0000 TC 65 -32.6000 64.0000 4 18 146
1960051S10073 1960 8 SI MM NOT_NAMED 1960-03-01 21:00:00 TS -33.3120 64.5660 main 1583 1583 P________PP___ SH131960 -33.3221 64.5584 -1 99 -33.3221 64.5584 TC 65 -33.2917 64.5812 4 17 146
1960051S10073 1960 8 SI MM NOT_NAMED 1960-03-02 00:00:00 TS -33.9827 65.1112 main 1673 1602 O________OP___ jtwc_sh SH131960 -34.0000 65.1000 -1 99 -34.0000 65.1000 TC 65 -33.9482 65.1337 4 16 145
1960051S10073 1960 8 SI MM NOT_NAMED 1960-03-02 03:00:00 TS -34.6056 65.6537 main 1601 1528 P________PP___ SH131960 -34.6181 65.6460 -1 99 -34.6181 65.6460 TC 65 -34.5806 65.6693 4 15 144
1960051S10073 1960 8 SI MM NOT_NAMED 1960-03-02 06:00:00 TS -35.2000 66.2000 main 1528 O________OO___ jtwc_sh SH131960 -35.2000 66.2000 -1 -35.2000 66.2000 TC 65 -35.2000 66.2000 4 15 143

IBTrACS Databaseについて

本データベースは、米国NOAAが公開する1842年以降の世界の熱帯低気圧のベストトラックデータアーカイブInternational Best Track Archive for Climate Stewardship (IBTrACS)を、ウェブで閲覧しやすい形式に変換したものです。

最終更新日:2021-12-01